Terminal Aerodrome Forecast
Issued by NWS Lake Charles, LA

Home | Current Version | Previous Version | Text Only | Print | Product List | Glossary On
Versions: 1 2 3 4 5 6 7 8 9 10 11 12 13 14 15 16 17 18 19 20
000
FTUS44 KLCH 020500
TAFLFT
TAF
KLFT 020520Z 0206/0306 00000KT P6SM FEW025 BKN200
     FM021400 17004KT P6SM SCT025 BKN035
     FM021800 17008KT P6SM VCSH SCT030 BKN050 PROB30 0219/0224 3SM
      SHRA BKN030
     FM030100 VRB03KT P6SM FEW060 BKN200=

USA.gov is the U.S. government's official web portal to all federal, state and local government web resources and services.